Time;durP1;ratioP1;P1;durP2;ratioP2;P2;SDS_P1;SDS_P2;PMS_P1;PMS_P2;Temp;Humidity;BMP_temperature;BMP_pressure;BME280_temperature;BME280_humidity;BME280_pressure;Samples;Min_cycle;Max_cycle;Signal;HPM_P1;HPM_P2
2023/02/23 00:03:13;;;;;;;30.60;16.40;;;;;;;4.29;94.67;100202.33;186127;1234;57460;-83
2023/02/23 00:07:18;;;;;;;27.00;15.60;;;;;;;4.29;94.80;100201.67;186107;1233;43925;-83
2023/02/23 00:11:20;;;;;;;25.50;15.70;;;;;;;4.25;94.67;100196.42;186277;1233;43948;-83
2023/02/23 00:15:25;;;;;;;24.40;14.70;;;;;;;4.22;94.78;100193.95;186366;1236;44062;-82
2023/02/23 00:19:27;;;;;;;32.90;16.40;;;;;;;4.20;94.60;100191.46;186227;1234;44124;-82
2023/02/23 00:23:28;;;;;;;28.20;15.10;;;;;;;4.17;94.52;100187.05;186389;1234;59295;-82
2023/02/23 00:27:30;;;;;;;36.70;17.40;;;;;;;4.15;94.34;100187.34;186344;1233;43774;-82
2023/02/23 00:31:31;;;;;;;63.40;18.10;;;;;;;4.13;94.24;100185.73;186038;1234;43773;-81
2023/02/23 00:35:33;;;;;;;30.70;18.70;;;;;;;4.09;94.36;100184.34;186034;1234;44067;-81
2023/02/23 00:39:34;;;;;;;32.10;18.40;;;;;;;4.09;94.06;100182.21;186174;1237;44047;-81
2023/02/23 00:43:38;;;;;;;30.60;18.60;;;;;;;4.11;93.90;100182.63;186230;1233;59807;-82
2023/02/23 00:47:41;;;;;;;29.80;17.40;;;;;;;4.09;93.96;100181.34;186071;1234;43836;-82
2023/02/23 00:51:43;;;;;;;29.60;18.40;;;;;;;4.11;93.99;100180.20;186206;1237;44216;-82
2023/02/23 00:55:44;;;;;;;35.00;18.10;;;;;;;4.08;93.79;100174.95;185987;1237;43751;-82
2023/02/23 00:59:46;;;;;;;25.80;18.00;;;;;;;4.09;93.81;100173.48;186110;1234;43978;-83
2023/02/23 01:03:48;;;;;;;38.80;22.90;;;;;;;4.03;94.17;100171.69;186045;1237;57801;-83
2023/02/23 01:07:49;;;;;;;36.60;20.80;;;;;;;4.00;94.15;100171.35;186011;1237;43947;-83
2023/02/23 01:11:51;;;;;;;33.90;20.70;;;;;;;3.98;94.11;100173.55;186045;1234;43990;-83
2023/02/23 01:15:53;;;;;;;34.50;21.30;;;;;;;3.96;93.97;100172.09;186365;1233;44051;-83
2023/02/23 01:19:54;;;;;;;34.60;20.30;;;;;;;3.95;93.89;100166.70;186359;1234;43606;-82
2023/02/23 01:23:57;;;;;;;31.30;19.70;;;;;;;3.91;94.04;100168.50;186377;1235;58769;-83
2023/02/23 01:27:58;;;;;;;36.80;22.10;;;;;;;3.89;94.15;100166.69;186412;1234;43560;-82
2023/02/23 01:32:00;;;;;;;41.40;25.30;;;;;;;3.91;93.88;100167.66;186221;1235;43903;-83
2023/02/23 01:36:06;;;;;;;40.90;21.70;;;;;;;3.87;93.75;100163.64;186216;1234;44044;-82
2023/02/23 01:40:14;;;;;;;37.10;24.00;;;;;;;3.85;93.97;100164.24;186238;1234;44032;-83
2023/02/23 01:44:18;;;;;;;43.40;22.40;;;;;;;3.89;93.69;100167.41;186152;1234;57059;-83
2023/02/23 01:48:27;;;;;;;37.20;21.10;;;;;;;3.83;93.91;100162.44;186331;1234;44078;-83
2023/02/23 01:52:29;;;;;;;33.40;18.00;;;;;;;3.81;93.99;100160.81;186283;1234;43786;-82
2023/02/23 01:56:35;;;;;;;39.10;23.00;;;;;;;3.70;95.00;100162.48;186381;1234;43973;-82
2023/02/23 02:00:36;;;;;;;32.20;21.20;;;;;;;3.70;94.98;100163.52;186191;1234;43879;-82
2023/02/23 02:04:47;;;;;;;38.50;23.60;;;;;;;3.64;95.49;100159.29;186234;1237;59830;-82
2023/02/23 02:08:53;;;;;;;34.80;21.80;;;;;;;3.62;95.41;100160.66;186221;1234;43868;-83
2023/02/23 02:12:56;;;;;;;40.10;21.60;;;;;;;3.56;95.69;100158.48;186061;1235;43945;-83
2023/02/23 02:17:34;;;;;;;38.40;22.60;;;;;;;3.54;95.85;100159.48;186263;1237;44125;-83
2023/02/23 02:21:46;;;;;;;54.80;29.40;;;;;;;3.51;95.87;100161.91;186233;1234;43745;-83
2023/02/23 02:25:58;;;;;;;59.30;32.50;;;;;;;3.49;95.85;100156.06;186338;1235;57769;-83
2023/02/23 02:30:03;;;;;;;42.00;26.40;;;;;;;3.41;96.06;100148.78;186127;1235;43988;-82
2023/02/23 02:34:22;;;;;;;45.50;25.40;;;;;;;3.40;96.37;100147.09;186219;1236;44006;-83
2023/02/23 02:38:49;;;;;;;47.10;26.30;;;;;;;3.37;96.77;100145.86;186225;1234;43712;-83
2023/02/23 02:43:19;;;;;;;36.90;22.80;;;;;;;3.33;96.82;100146.77;186359;1234;43754;-83
2023/02/23 02:47:28;;;;;;;42.70;23.20;;;;;;;3.32;97.00;100138.21;186161;1235;59439;-83
2023/02/23 02:51:38;;;;;;;44.10;25.80;;;;;;;3.28;97.36;100139.30;186433;1234;43878;-83
2023/02/23 02:55:42;;;;;;;47.60;24.20;;;;;;;3.29;97.18;100135.39;186198;1234;44076;-83
2023/02/23 04:20:13;;;;;;;46.60;27.50;;;;;;;3.03;97.64;100131.86;186235;1235;43994;-87
2023/02/23 04:24:15;;;;;;;57.70;28.50;;;;;;;3.04;97.64;100131.99;186317;1235;44089;-87
2023/02/23 04:28:17;;;;;;;46.30;26.50;;;;;;;3.05;97.58;100130.71;186510;1234;43716;-89
2023/02/23 04:32:20;;;;;;;58.60;29.20;;;;;;;2.97;98.12;100128.32;186340;1234;43638;-90
2023/02/23 04:36:23;;;;;;;49.90;30.40;;;;;;;2.96;98.29;100128.56;186275;1234;58010;-90
2023/02/23 04:40:26;;;;;;;49.20;27.40;;;;;;;3.00;98.25;100127.77;186346;1235;43605;-90
2023/02/23 04:44:30;;;;;;;44.60;24.50;;;;;;;3.06;98.04;100123.11;186372;1235;43998;-89
2023/02/23 04:48:32;;;;;;;52.70;31.50;;;;;;;3.09;97.85;100120.85;186426;1234;43702;-90
2023/02/23 04:52:36;;;;;;;42.70;28.10;;;;;;;3.08;97.49;100121.82;186266;1234;43739;-90
2023/02/23 04:56:39;;;;;;;58.40;31.30;;;;;;;3.10;97.62;100119.76;186285;1233;58226;-89
2023/02/23 05:00:41;;;;;;;55.50;30.60;;;;;;;3.12;97.58;100115.59;186270;1233;44042;-90
2023/02/23 05:04:44;;;;;;;54.00;34.20;;;;;;;3.13;97.57;100118.38;186157;1233;43884;-89
2023/02/23 05:08:46;;;;;;;57.40;32.90;;;;;;;3.10;97.45;100115.03;186197;1234;44084;-89
2023/02/23 05:12:48;;;;;;;57.60;32.20;;;;;;;3.10;97.58;100115.58;186427;1234;43688;-89
2023/02/23 05:16:51;;;;;;;59.90;34.10;;;;;;;3.05;97.84;100108.45;186408;1235;59478;-88
2023/02/23 05:21:00;;;;;;;56.20;32.20;;;;;;;3.05;97.95;100106.87;186214;1233;43675;-88
2023/02/23 05:25:03;;;;;;;58.60;31.60;;;;;;;2.98;98.26;100100.58;186245;1233;43647;-89
2023/02/23 05:29:05;;;;;;;66.20;34.60;;;;;;;2.91;98.88;100097.77;186207;1235;43821;-90
2023/02/23 05:33:09;;;;;;;53.70;30.00;;;;;;;2.91;99.00;100100.27;186380;1234;43699;-89
2023/02/23 05:37:13;;;;;;;64.90;35.70;;;;;;;2.85;99.34;100094.41;186116;1235;58389;-88
2023/02/23 05:41:18;;;;;;;64.30;35.10;;;;;;;2.84;99.79;100094.48;186128;1234;43783;-87
2023/02/23 05:45:21;;;;;;;55.20;32.40;;;;;;;2.82;99.91;100097.37;186185;1233;43739;-87
2023/02/23 05:49:23;;;;;;;54.10;31.00;;;;;;;2.83;99.97;100093.12;185999;1234;43732;-88
2023/02/23 05:53:25;;;;;;;61.90;33.20;;;;;;;2.79;100.00;100090.04;186125;1233;43841;-88
2023/02/23 05:57:28;;;;;;;59.60;37.70;;;;;;;2.75;100.00;100095.68;186224;1234;57995;-88
2023/02/23 06:01:31;;;;;;;74.80;39.20;;;;;;;2.72;100.00;100103.36;186148;1233;44007;-89
2023/02/23 06:05:33;;;;;;;62.10;41.80;;;;;;;2.74;100.00;100101.48;185981;1233;43974;-88
2023/02/23 06:09:36;;;;;;;68.20;43.10;;;;;;;2.75;100.00;100098.78;186087;1233;43706;-88
2023/02/23 06:13:39;;;;;;;56.10;38.20;;;;;;;2.80;100.00;100100.14;186286;1234;43817;-88
2023/02/23 06:17:40;;;;;;;65.80;37.50;;;;;;;2.82;100.00;100102.09;186259;1234;58825;-88
2023/02/23 06:21:43;;;;;;;59.20;38.00;;;;;;;2.87;100.00;100101.33;186112;1234;43942;-88
2023/02/23 06:25:47;;;;;;;69.10;39.00;;;;;;;2.90;100.00;100103.42;186008;1233;44075;-88
2023/02/23 06:29:51;;;;;;;67.90;41.40;;;;;;;2.93;100.00;100104.70;186196;1234;44164;-88
2023/02/23 06:33:53;;;;;;;68.10;37.20;;;;;;;2.95;100.00;100102.85;185972;1237;43693;-88
2023/02/23 06:37:56;;;;;;;112.20;64.20;;;;;;;3.01;100.00;100107.98;186113;1235;59191;-88
2023/02/23 06:41:59;;;;;;;78.30;45.40;;;;;;;3.09;100.00;100107.91;186166;1233;43929;-88
2023/02/23 06:46:01;;;;;;;78.60;48.10;;;;;;;3.14;100.00;100103.57;186092;1233;43591;-88
2023/02/23 06:50:05;;;;;;;73.70;49.70;;;;;;;3.25;99.92;100108.61;186119;1235;43941;-88
2023/02/23 06:54:10;;;;;;;75.10;43.70;;;;;;;3.29;99.87;100107.35;186101;1233;43768;-87
2023/02/23 06:58:11;;;;;;;63.10;41.90;;;;;;;3.35;99.83;100108.27;186244;1235;59494;-88
2023/02/23 07:02:13;;;;;;;76.90;42.40;;;;;;;3.39;100.00;100108.90;185927;1233;44121;-88
2023/02/23 07:06:16;;;;;;;82.70;46.20;;;;;;;3.44;100.00;100107.75;186254;1234;43751;-87
2023/02/23 07:10:17;;;;;;;66.70;36.00;;;;;;;3.52;99.95;100110.45;186217;1233;43705;-88
2023/02/23 07:14:19;;;;;;;72.90;41.30;;;;;;;3.57;99.95;100107.58;186064;1235;44095;-88
2023/02/23 07:18:28;;;;;;;70.90;45.40;;;;;;;3.62;99.77;100107.14;186135;1234;57275;-88
2023/02/23 07:22:30;;;;;;;90.30;45.40;;;;;;;3.74;99.30;100110.15;186122;1233;43986;-88
2023/02/23 07:26:32;;;;;;;71.80;47.20;;;;;;;3.80;99.26;100110.38;186218;1234;43662;-88
2023/02/23 07:30:35;;;;;;;75.40;42.10;;;;;;;3.82;99.18;100109.02;186289;1233;43670;-88
2023/02/23 07:34:38;;;;;;;156.30;90.30;;;;;;;3.82;99.56;100111.11;186183;1233;43674;-88
2023/02/23 07:38:40;;;;;;;103.20;60.60;;;;;;;3.96;99.06;100110.33;186126;1233;59515;-88
2023/02/23 07:42:44;;;;;;;88.80;56.50;;;;;;;4.04;98.93;100105.66;186134;1234;43657;-88
2023/02/23 07:46:46;;;;;;;76.30;47.80;;;;;;;4.16;98.09;100100.60;186256;1233;44248;-88
2023/02/23 07:50:48;;;;;;;90.60;58.90;;;;;;;4.31;98.15;100099.38;186172;1234;43939;-87
2023/02/23 07:54:50;;;;;;;92.50;52.40;;;;;;;4.42;97.59;100093.98;186116;1233;44237;-88
2023/02/23 07:58:52;;;;;;;91.30;55.60;;;;;;;4.47;97.19;100092.67;186096;1234;59294;-88
2023/02/23 08:02:54;;;;;;;80.00;54.60;;;;;;;4.66;97.39;100081.68;186120;1234;44003;-88
2023/02/23 08:06:57;;;;;;;87.20;57.20;;;;;;;4.88;96.71;100079.11;186180;1234;43991;-88
2023/02/23 08:11:00;;;;;;;93.30;51.30;;;;;;;5.08;95.67;100083.73;186131;1234;43822;-88
2023/02/23 08:15:07;;;;;;;86.60;52.60;;;;;;;5.24;96.08;100082.91;186137;1233;44028;-88
2023/02/23 08:19:09;;;;;;;86.60;50.30;;;;;;;5.48;94.57;100078.20;186112;1234;58454;-88
2023/02/23 08:23:11;;;;;;;90.00;53.00;;;;;;;5.65;93.59;100078.17;186127;1234;43639;-87
2023/02/23 08:27:13;;;;;;;82.50;52.50;;;;;;;5.90;92.35;100079.58;185977;1235;43662;-88
2023/02/23 08:31:17;;;;;;;85.70;54.20;;;;;;;5.99;91.34;100071.48;186150;1235;43888;-88
2023/02/23 08:35:21;;;;;;;84.00;48.10;;;;;;;6.08;91.50;100074.08;186147;1234;43976;-88
2023/02/23 08:39:23;;;;;;;88.00;52.50;;;;;;;6.26;91.51;100070.55;186203;1234;57879;-87
2023/02/23 08:43:26;;;;;;;74.70;49.10;;;;;;;6.43;90.62;100074.04;186147;1233;43974;-87
2023/02/23 08:47:28;;;;;;;74.60;45.70;;;;;;;6.58;90.22;100073.87;186133;1235;44010;-88
2023/02/23 08:51:33;;;;;;;89.60;48.30;;;;;;;6.71;89.15;100070.53;186295;1234;43938;-87
2023/02/23 08:55:37;;;;;;;84.00;52.30;;;;;;;6.92;89.39;100064.72;186112;1233;44030;-88
2023/02/23 08:59:40;;;;;;;91.30;49.70;;;;;;;7.10;87.87;100062.22;186023;1233;58220;-87
2023/02/23 09:03:41;;;;;;;73.30;49.70;;;;;;;7.32;87.83;100062.75;186244;1234;43701;-87
2023/02/23 09:17:17;;;;;;;76.90;50.00;;;;;;;8.04;87.42;100064.98;187096;1233;79482;-87
2023/02/23 09:21:23;;;;;;;75.00;50.90;;;;;;;8.27;85.01;100056.37;186257;1233;57190;-87
2023/02/23 09:30:16;;;;;;;76.20;45.70;;;;;;;8.35;86.69;100044.30;187156;1233;82026;-71
2023/02/23 09:34:19;;;;;;;64.70;43.80;;;;;;;8.31;87.63;100040.69;187405;1233;43029;-72
2023/02/23 09:38:26;;;;;;;80.90;50.40;;;;;;;8.57;86.39;100038.91;187405;1232;43663;-73
2023/02/23 09:43:26;;;;;;;72.80;48.70;;;;;;;8.79;85.57;100031.27;187194;1233;58792;-72
2023/02/23 09:53:30;;;;;;;72.40;46.40;;;;;;;9.10;84.17;100024.95;186381;1238;43010;-72
2023/02/23 09:58:11;;;;;;;73.90;45.70;;;;;;;9.19;83.52;100026.15;186400;1238;42974;-73
2023/02/23 10:07:03;;;;;;;66.10;44.20;;;;;;;9.60;83.60;100021.27;186251;1238;57824;-73
2023/02/23 10:11:26;;;;;;;;;;;;;;;9.84;83.73;100020.73;186467;1238;42945;-74
2023/02/23 10:29:59;;;;;;;52.10;37.30;;;;;;;10.45;81.74;100004.49;187311;1236;57852;-74
2023/02/23 10:34:05;;;;;;;60.70;37.70;;;;;;;10.63;81.72;99998.85;187443;1233;43612;-73
2023/02/23 10:38:14;;;;;;;80.20;41.90;;;;;;;10.76;81.89;99997.43;187099;1232;42984;-72
2023/02/23 10:42:21;;;;;;;55.30;38.30;;;;;;;10.84;81.48;99992.66;187190;1232;43074;-72
2023/02/23 10:46:31;;;;;;;51.50;37.50;;;;;;;10.92;81.32;99994.33;187429;1233;42925;-72
2023/02/23 10:51:01;;;;;;;59.50;39.10;;;;;;;11.12;81.25;99988.44;187181;1232;57809;-74
2023/02/23 10:55:03;;;;;;;;;;;;;;;11.22;80.96;99985.06;187282;1234;42932;-74
2023/02/23 10:59:19;;;;;;;61.10;40.60;;;;;;;11.24;80.10;99976.36;187383;1233;42770;-75
2023/02/23 11:03:49;;;;;;;55.70;37.30;;;;;;;11.29;79.98;99972.38;187245;1233;43695;-72
2023/02/23 11:08:30;;;;;;;58.00;38.50;;;;;;;11.31;81.48;99965.96;187375;1233;43601;-72
2023/02/23 11:12:37;;;;;;;58.90;41.60;;;;;;;11.35;82.92;99962.42;187411;1235;57900;-73
2023/02/23 11:16:38;;;;;;;49.90;36.20;;;;;;;11.44;81.52;99956.80;187370;1233;43059;-72
2023/02/23 11:20:42;;;;;;;54.80;38.30;;;;;;;11.54;80.71;99954.86;187312;1233;42939;-73
2023/02/23 11:24:45;;;;;;;68.30;41.50;;;;;;;11.57;80.93;99953.33;187233;1232;43003;-73
2023/02/23 11:28:53;;;;;;;71.70;41.50;;;;;;;11.58;80.63;99947.40;187196;1234;43411;-73
2023/02/23 11:32:57;;;;;;;65.00;38.80;;;;;;;11.55;80.87;99942.17;187370;1232;59494;-72
2023/02/23 11:37:23;;;;;;;64.90;42.10;;;;;;;11.40;81.47;99938.21;187178;1234;43313;-72
2023/02/23 11:41:24;;;;;;;74.70;48.00;;;;;;;11.48;82.12;99931.09;187355;1234;42976;-74
2023/02/23 11:45:32;;;;;;;62.20;41.70;;;;;;;11.42;82.80;99925.20;187353;1233;42915;-72
2023/02/23 11:50:00;;;;;;;51.60;36.90;;;;;;;11.35;83.13;99925.67;187373;1234;43623;-72
2023/02/23 11:54:04;;;;;;;125.90;83.20;;;;;;;11.37;83.58;99922.83;187321;1233;58151;-76
2023/02/23 11:58:34;;;;;;;64.40;38.80;;;;;;;11.18;85.19;99924.17;187286;1232;42893;-72
2023/02/23 12:02:57;;;;;;;57.60;41.40;;;;;;;11.37;83.63;99920.21;187339;1232;42983;-73
2023/02/23 12:07:20;;;;;;;73.30;48.60;;;;;;;11.45;83.00;99916.23;187214;1232;43014;-73
2023/02/23 12:11:27;;;;;;;69.20;46.20;;;;;;;11.52;83.44;99915.45;187458;1234;43638;-74
2023/02/23 12:15:55;;;;;;;61.40;39.70;;;;;;;11.58;82.78;99914.21;187158;1232;57929;-73
2023/02/23 12:20:30;;;;;;;78.20;42.70;;;;;;;11.56;83.11;99910.77;187298;1233;43628;-73
2023/02/23 12:24:43;;;;;;;65.60;38.70;;;;;;;11.64;83.51;99903.17;187243;1233;43136;-73
2023/02/23 12:29:14;;;;;;;56.60;36.30;;;;;;;11.81;83.26;99891.13;187391;1232;43011;-72
2023/02/23 12:33:51;;;;;;;63.20;39.90;;;;;;;12.02;83.12;99881.60;187319;1233;42955;-74
2023/02/23 12:43:32;;;;;;;68.40;41.50;;;;;;;12.31;82.27;99876.84;187395;1233;42958;-72
2023/02/23 12:47:43;;;;;;;54.50;34.60;;;;;;;12.44;81.26;99871.06;187315;1232;43007;-73
2023/02/23 12:51:50;;;;;;;54.50;36.80;;;;;;;12.50;80.89;99868.92;187385;1234;42971;-72
2023/02/23 12:56:13;;;;;;;53.30;37.60;;;;;;;12.46;81.57;99866.77;187362;1233;43776;-73
2023/02/23 13:00:32;;;;;;;58.10;42.00;;;;;;;12.55;81.54;99860.39;187352;1233;56936;-73
2023/02/23 13:04:52;;;;;;;55.80;36.30;;;;;;;12.66;81.08;99858.20;187380;1234;43759;-72
2023/02/23 13:09:25;;;;;;;48.90;35.40;;;;;;;12.74;81.39;99858.03;187346;1233;42935;-73
2023/02/23 13:13:50;;;;;;;72.50;40.30;;;;;;;12.83;80.63;99857.27;187334;1234;43036;-74
2023/02/23 13:18:00;;;;;;;64.50;40.00;;;;;;;12.89;80.76;99849.45;187195;1233;43660;-72
2023/02/23 13:22:25;;;;;;;57.20;34.70;;;;;;;12.93;80.16;99844.20;187181;1234;56806;-73
2023/02/23 13:26:52;;;;;;;53.20;33.50;;;;;;;12.94;80.36;99835.54;187202;1235;42992;-73
2023/02/23 13:30:55;;;;;;;58.60;39.10;;;;;;;12.93;80.85;99832.13;187187;1234;43109;-73
2023/02/23 13:35:01;;;;;;;63.30;41.60;;;;;;;12.97;80.99;99826.95;187142;1233;43070;-73
2023/02/23 13:39:26;;;;;;;53.00;35.00;;;;;;;13.01;80.93;99825.70;187181;1233;42965;-72
2023/02/23 13:43:36;;;;;;;51.20;33.20;;;;;;;13.05;79.66;99822.95;187140;1233;57904;-73
2023/02/23 13:47:49;;;;;;;55.40;34.20;;;;;;;13.00;80.33;99822.55;187186;1234;42943;-72
2023/02/23 13:52:19;;;;;;;56.60;35.20;;;;;;;13.07;81.01;99822.72;187194;1235;43515;-73
2023/02/23 13:56:25;;;;;;;47.80;31.30;;;;;;;13.20;80.40;99824.31;187195;1234;43640;-72
2023/02/23 14:00:27;;;;;;;54.80;34.90;;;;;;;13.31;80.73;99818.77;187346;1236;43318;-72
2023/02/23 14:04:54;;;;;;;54.90;33.60;;;;;;;13.36;80.59;99818.08;187191;1234;58284;-73
2023/02/23 14:09:30;;;;;;;47.60;34.90;;;;;;;13.39;80.80;99815.30;187152;1234;42930;-72
2023/02/23 14:13:58;;;;;;;50.80;32.70;;;;;;;13.35;80.33;99809.86;187337;1234;43021;-77
2023/02/23 15:30:30;;;;;;;54.40;36.00;;;;;;;13.37;85.64;99774.14;187252;1232;78059;-71
2023/02/23 15:34:32;;;;;;;56.00;36.20;;;;;;;13.34;86.17;99772.17;187401;1233;43753;-73
2023/02/23 15:38:42;;;;;;;54.80;34.80;;;;;;;13.31;86.45;99771.38;186941;1234;43033;-74
2023/02/23 15:43:28;;;;;;;50.60;36.90;;;;;;;13.29;86.92;99775.28;187003;1233;219988;-73
2023/02/23 15:47:35;;;;;;;59.50;40.60;;;;;;;13.19;87.26;99777.20;187282;1234;43651;-72
2023/02/23 15:51:47;;;;;;;52.70;34.80;;;;;;;13.04;86.93;99776.77;187177;1233;43408;-76
2023/02/23 15:56:21;;;;;;;41.10;30.10;;;;;;;12.87;86.50;99772.05;187137;1233;43625;-74
2023/02/23 16:00:50;;;;;;;43.80;31.10;;;;;;;12.68;85.94;99765.88;187295;1237;42903;-74
2023/02/23 16:04:52;;;;;;;47.50;27.60;;;;;;;12.52;86.22;99763.91;187060;1234;57930;-74
2023/02/23 16:09:22;;;;;;;46.90;30.90;;;;;;;12.35;87.09;99768.91;187176;1234;43789;-74
2023/02/23 16:13:26;;;;;;;50.40;33.40;;;;;;;12.19;87.79;99760.53;187221;1234;43645;-74
2023/02/23 16:17:29;;;;;;;166.50;123.20;;;;;;;12.08;87.80;99756.24;186679;1232;76519;-88
2023/02/23 16:21:32;;;;;;;74.30;66.60;;;;;;;11.93;88.13;99759.08;186417;1233;44072;-86
2023/02/23 16:25:34;;;;;;;51.10;37.90;;;;;;;11.77;88.91;99754.51;186015;1233;57937;-87
2023/02/23 16:29:41;;;;;;;52.60;41.80;;;;;;;11.66;89.73;99750.42;186176;1233;43805;-87
2023/02/23 16:33:51;;;;;;;91.20;52.30;;;;;;;11.56;90.45;99753.31;186174;1233;43689;-87
2023/02/23 16:38:11;;;;;;;183.50;98.20;;;;;;;11.46;91.11;99753.91;186496;1233;43764;-87
2023/02/23 16:42:25;;;;;;;157.40;96.30;;;;;;;11.42;91.50;99748.41;186420;1233;44209;-87
2023/02/23 16:46:31;;;;;;;99.80;62.10;;;;;;;11.38;92.03;99749.33;186240;1233;57778;-87
2023/02/23 16:50:35;;;;;;;92.10;63.40;;;;;;;11.36;92.28;99749.82;186249;1234;43851;-87
2023/02/23 16:54:36;;;;;;;84.40;57.60;;;;;;;11.34;92.85;99749.58;186567;1232;43919;-87
2023/02/23 16:58:41;;;;;;;87.70;59.00;;;;;;;11.35;92.83;99746.93;186471;1233;43715;-87
2023/02/23 17:02:43;;;;;;;82.30;55.60;;;;;;;11.33;92.90;99742.48;186314;1232;43702;-87
2023/02/23 17:06:51;;;;;;;77.50;48.60;;;;;;;11.28;93.11;99743.09;186244;1232;59589;-87
2023/02/23 17:10:56;;;;;;;58.70;39.00;;;;;;;11.22;93.17;99737.67;186366;1233;43988;-88
2023/02/23 17:14:58;;;;;;;54.00;35.50;;;;;;;11.13;93.57;99736.22;186332;1234;43927;-87
2023/02/23 17:19:00;;;;;;;61.50;39.60;;;;;;;11.03;94.12;99736.57;186305;1234;43706;-88
2023/02/23 17:23:02;;;;;;;66.10;39.60;;;;;;;10.92;94.66;99732.25;186327;1235;43703;-88
2023/02/23 17:27:04;;;;;;;99.40;68.90;;;;;;;10.83;94.95;99736.11;186221;1234;59106;-89
2023/02/23 17:31:07;;;;;;;110.90;73.80;;;;;;;10.63;96.23;99741.77;186321;1232;43619;-88
2023/02/23 17:35:09;;;;;;;168.80;109.60;;;;;;;10.35;98.10;99744.38;186312;1233;43926;-87
2023/02/23 17:39:12;;;;;;;124.20;82.00;;;;;;;10.18;99.40;99744.33;186444;1234;43840;-88
2023/02/23 17:43:19;;;;;;;114.50;63.70;;;;;;;9.99;100.00;99745.64;186271;1233;43702;-87
2023/02/23 17:47:20;;;;;;;98.40;74.80;;;;;;;9.89;100.00;99744.94;186457;1234;59117;-87
2023/02/23 17:51:23;;;;;;;115.20;74.10;;;;;;;9.82;100.00;99740.70;186482;1234;43699;-88
2023/02/23 17:55:25;;;;;;;79.10;56.20;;;;;;;9.86;100.00;99741.30;186483;1233;43798;-88
2023/02/23 17:59:27;;;;;;;60.30;44.90;;;;;;;9.82;100.00;99742.12;186237;1232;43767;-87
2023/02/23 18:03:32;;;;;;;84.80;52.10;;;;;;;9.85;100.00;99745.46;186282;1233;43659;-88
2023/02/23 18:07:34;;;;;;;87.40;62.00;;;;;;;9.93;99.29;99745.09;186309;1233;58371;-88
2023/02/23 18:11:36;;;;;;;88.80;63.90;;;;;;;9.96;98.68;99744.30;186293;1233;43932;-88
2023/02/23 18:15:39;;;;;;;77.70;54.60;;;;;;;9.92;97.80;99741.80;186516;1234;43765;-87
2023/02/23 18:19:51;;;;;;;72.10;51.70;;;;;;;9.89;97.75;99739.61;186467;1232;43628;-87
2023/02/23 18:23:57;;;;;;;65.30;46.10;;;;;;;9.84;97.04;99736.78;186327;1233;43715;-87
2023/02/23 18:27:59;;;;;;;67.50;50.00;;;;;;;9.83;96.75;99738.72;186543;1234;59137;-87
2023/02/23 18:32:03;;;;;;;58.40;40.40;;;;;;;9.87;96.23;99736.39;186479;1233;43799;-87
2023/02/23 18:36:26;;;;;;;75.70;48.10;;;;;;;9.92;95.95;99737.77;186233;1233;43705;-88
2023/02/23 18:40:28;;;;;;;61.50;43.50;;;;;;;9.94;95.38;99735.80;186500;1233;43591;-88
2023/02/23 18:44:30;;;;;;;65.90;46.50;;;;;;;9.94;95.29;99740.42;186515;1233;43780;-87
2023/02/23 18:48:36;;;;;;;53.70;38.90;;;;;;;9.91;95.34;99737.46;186150;1233;59126;-86
2023/02/23 18:52:39;;;;;;;68.40;44.70;;;;;;;9.77;95.37;99738.15;186486;1233;43946;-88
2023/02/23 18:56:42;;;;;;;67.30;43.00;;;;;;;9.72;96.18;99736.42;186529;1232;43998;-87
2023/02/23 19:00:45;;;;;;;60.50;43.50;;;;;;;9.71;96.27;99735.50;186415;1233;43870;-86
2023/02/23 19:04:47;;;;;;;72.30;46.70;;;;;;;9.64;96.29;99738.59;186500;1233;43873;-86
2023/02/23 19:08:52;;;;;;;81.50;51.30;;;;;;;9.51;97.40;99735.95;186279;1233;58863;-86
2023/02/23 19:12:55;;;;;;;86.40;47.80;;;;;;;9.49;97.64;99735.80;186317;1232;43708;-86
2023/02/23 19:16:56;;;;;;;78.40;49.60;;;;;;;9.53;97.82;99735.41;186447;1233;44014;-87
2023/02/23 19:20:59;;;;;;;63.60;43.00;;;;;;;9.56;97.77;99730.75;186401;1233;43982;-87
2023/02/23 19:25:01;;;;;;;74.30;46.70;;;;;;;9.58;98.29;99731.79;186558;1232;44004;-87
2023/02/23 19:29:03;;;;;;;68.20;47.20;;;;;;;9.67;98.57;99728.70;186389;1233;58065;-87
2023/02/23 19:33:05;;;;;;;67.50;44.80;;;;;;;9.72;98.46;99728.50;186394;1232;43785;-89
2023/02/23 19:37:08;;;;;;;58.20;40.10;;;;;;;9.78;99.33;99729.77;186323;1234;43725;-87
2023/02/23 19:41:14;;;;;;;49.20;37.30;;;;;;;9.77;99.67;99728.59;186406;1233;43875;-88
2023/02/23 19:45:17;;;;;;;72.70;42.40;;;;;;;9.63;99.98;99731.04;186190;1232;43820;-87
2023/02/23 19:49:19;;;;;;;48.20;37.10;;;;;;;9.62;100.00;99726.91;186232;1233;58323;-87
2023/02/23 19:53:22;;;;;;;74.90;48.10;;;;;;;9.66;100.00;99728.16;186196;1233;43804;-86
2023/02/23 19:57:24;;;;;;;63.90;43.90;;;;;;;9.79;100.00;99732.33;186163;1234;43970;-87
2023/02/23 20:01:28;;;;;;;47.50;37.20;;;;;;;9.86;100.00;99727.80;186149;1232;44166;-89
2023/02/23 20:05:41;;;;;;;59.20;36.90;;;;;;;9.96;100.00;99722.30;186359;1234;44074;-85
2023/02/23 20:09:43;;;;;;;60.40;42.10;;;;;;;9.98;100.00;99722.01;186250;1233;57349;-87
2023/02/23 20:13:46;;;;;;;64.30;41.30;;;;;;;10.01;100.00;99719.27;186475;1233;43857;-87
2023/02/23 20:17:50;;;;;;;72.30;43.30;;;;;;;10.01;100.00;99717.80;186435;1232;43816;-88
2023/02/23 20:21:56;;;;;;;60.90;42.90;;;;;;;10.08;100.00;99715.83;186327;1234;43701;-88
2023/02/23 20:25:58;;;;;;;57.60;40.50;;;;;;;10.05;100.00;99708.77;186145;1233;43779;-87
2023/02/23 20:30:00;;;;;;;57.70;38.60;;;;;;;10.04;100.00;99704.77;186533;1233;58129;-87
2023/02/23 20:34:05;;;;;;;76.90;47.80;;;;;;;9.99;100.00;99700.10;186481;1233;44014;-88
2023/02/23 20:38:07;;;;;;;80.40;52.40;;;;;;;10.02;100.00;99696.67;186277;1232;43665;-87
2023/02/23 20:42:09;;;;;;;80.10;54.90;;;;;;;9.97;100.00;99692.70;186370;1234;43620;-87
2023/02/23 20:46:13;;;;;;;82.70;58.60;;;;;;;9.91;100.00;99689.33;186347;1232;43998;-86
2023/02/23 20:50:15;;;;;;;74.80;54.70;;;;;;;9.95;100.00;99685.19;186220;1232;57834;-87
2023/02/23 20:54:17;;;;;;;83.50;52.90;;;;;;;10.04;100.00;99684.13;186166;1232;43782;-87
2023/02/23 20:58:28;;;;;;;49.80;32.80;;;;;;;10.12;99.82;99685.51;186149;1232;44011;-86
2023/02/23 21:02:30;;;;;;;50.50;33.60;;;;;;;10.15;99.24;99686.47;186196;1232;43805;-87
2023/02/23 21:06:32;;;;;;;45.10;30.10;;;;;;;10.18;99.05;99688.39;186443;1233;43656;-87
2023/02/23 21:10:37;;;;;;;37.20;28.30;;;;;;;10.12;99.23;99682.14;186374;1234;58090;-87
2023/02/23 21:14:39;;;;;;;37.50;29.10;;;;;;;10.12;99.32;99681.56;186361;1234;44201;-87
2023/02/23 21:18:42;;;;;;;43.90;29.20;;;;;;;10.10;99.56;99678.89;186357;1232;43772;-87
2023/02/23 21:22:48;;;;;;;55.90;33.40;;;;;;;10.03;99.95;99674.23;186407;1232;43965;-88
2023/02/23 21:26:50;;;;;;;45.00;29.80;;;;;;;10.06;100.00;99675.60;186347;1232;43696;-87
2023/02/23 21:30:52;;;;;;;35.30;24.00;;;;;;;10.04;100.00;99671.48;186364;1233;60787;-87
2023/02/23 21:34:54;;;;;;;46.70;32.80;;;;;;;10.04;100.00;99667.80;186360;1237;43959;-88
2023/02/23 21:38:56;;;;;;;65.50;36.60;;;;;;;10.02;100.00;99664.08;186409;1233;43995;-88
2023/02/23 21:43:00;;;;;;;48.70;31.00;;;;;;;10.02;100.00;99658.57;186369;1233;43752;-88
2023/02/23 21:47:05;;;;;;;40.40;29.20;;;;;;;10.09;100.00;99653.89;186346;1233;43867;-87
2023/02/23 21:51:10;;;;;;;49.50;32.50;;;;;;;10.18;100.00;99651.99;186324;1233;57888;-87
2023/02/23 21:55:15;;;;;;;48.10;36.30;;;;;;;10.21;99.96;99647.69;186312;1233;43892;-86
2023/02/23 21:59:24;;;;;;;42.20;27.20;;;;;;;10.22;99.66;99647.91;186327;1234;44065;-87
2023/02/23 22:03:28;;;;;;;38.80;28.80;;;;;;;10.18;99.50;99645.84;186477;1233;43825;-87